Nashville, Tennessee
Traffic Map
Current Weather Conditions
Nashville, Tennessee
Broken Clouds
Broken Clouds
50°
Feels Like: 50°
Wind Chill: 50° Ceiling: 15000
Heat Index: 50° Visibility: 10mi
Dew Point: 45° Wind: 5mph
Humidity: 83% Direction: 320° (NW)
Pressure: 30.12in Gusts: 0mph
Raw Report DataKBNA 240953Z 32004KT 10SM BKN150 10/07 A3012 RMK AO2 SLP197 T01000072
Traffic Incident Summary
Active as of:
Severity:
Category:
InformationThere was an issue retrieving the traffic information for this location. Please try a different location or try again shortly.
Advertisements
Track Severe Weather on mobile